sensor_id;sensor_type;location;lat;lon;timestamp;P1;durP1;ratioP1;P2;durP2;ratioP2
47589;SDS011;33316;52.298;9.056;2023-05-16T00:00:11;4.30;;;3.00;;
47589;SDS011;33316;52.298;9.056;2023-05-16T00:02:38;5.05;;;2.90;;
47589;SDS011;33316;52.298;9.056;2023-05-16T00:05:06;2.90;;;2.05;;
47589;SDS011;33316;52.298;9.056;2023-05-16T00:07:34;3.15;;;2.33;;
47589;SDS011;33316;52.298;9.056;2023-05-16T00:10:01;4.20;;;2.92;;
47589;SDS011;33316;52.298;9.056;2023-05-16T00:12:28;2.80;;;2.20;;
47589;SDS011;33316;52.298;9.056;2023-05-16T00:14:58;2.45;;;2.15;;
47589;SDS011;33316;52.298;9.056;2023-05-16T00:17:25;3.83;;;2.75;;
47589;SDS011;33316;52.298;9.056;2023-05-16T00:19:52;3.75;;;2.63;;
47589;SDS011;33316;52.298;9.056;2023-05-16T00:22:22;4.20;;;2.72;;
47589;SDS011;33316;52.298;9.056;2023-05-16T00:24:49;3.63;;;2.38;;
47589;SDS011;33316;52.298;9.056;2023-05-16T00:27:15;3.53;;;2.80;;
47589;SDS011;33316;52.298;9.056;2023-05-16T00:29:42;3.35;;;2.42;;
47589;SDS011;33316;52.298;9.056;2023-05-16T00:32:10;3.67;;;2.85;;
47589;SDS011;33316;52.298;9.056;2023-05-16T00:34:37;3.85;;;2.90;;
47589;SDS011;33316;52.298;9.056;2023-05-16T00:37:03;5.05;;;2.97;;
47589;SDS011;33316;52.298;9.056;2023-05-16T00:39:30;5.93;;;3.78;;
47589;SDS011;33316;52.298;9.056;2023-05-16T00:41:57;5.60;;;3.42;;
47589;SDS011;33316;52.298;9.056;2023-05-16T00:44:23;4.88;;;3.20;;
47589;SDS011;33316;52.298;9.056;2023-05-16T00:46:50;3.35;;;2.78;;
47589;SDS011;33316;52.298;9.056;2023-05-16T00:49:18;4.97;;;2.60;;
47589;SDS011;33316;52.298;9.056;2023-05-16T00:51:45;4.85;;;3.10;;
47589;SDS011;33316;52.298;9.056;2023-05-16T00:54:13;3.63;;;2.72;;
47589;SDS011;33316;52.298;9.056;2023-05-16T00:56:40;5.38;;;2.40;;
47589;SDS011;33316;52.298;9.056;2023-05-16T00:59:06;3.33;;;2.22;;
47589;SDS011;33316;52.298;9.056;2023-05-16T01:01:33;4.05;;;2.90;;
47589;SDS011;33316;52.298;9.056;2023-05-16T01:04:01;3.17;;;2.00;;
47589;SDS011;33316;52.298;9.056;2023-05-16T01:06:30;3.60;;;2.10;;
47589;SDS011;33316;52.298;9.056;2023-05-16T01:08:58;3.60;;;1.95;;
47589;SDS011;33316;52.298;9.056;2023-05-16T01:11:26;3.65;;;1.90;;
47589;SDS011;33316;52.298;9.056;2023-05-16T01:13:58;3.03;;;1.88;;
47589;SDS011;33316;52.298;9.056;2023-05-16T01:16:35;2.25;;;1.52;;
47589;SDS011;33316;52.298;9.056;2023-05-16T01:19:09;2.55;;;1.63;;
47589;SDS011;33316;52.298;9.056;2023-05-16T01:21:48;2.10;;;1.77;;
47589;SDS011;33316;52.298;9.056;2023-05-16T01:24:28;3.60;;;1.60;;
47589;SDS011;33316;52.298;9.056;2023-05-16T01:27:00;2.05;;;1.60;;
47589;SDS011;33316;52.298;9.056;2023-05-16T01:29:31;2.45;;;1.15;;
47589;SDS011;33316;52.298;9.056;2023-05-16T01:31:57;1.75;;;1.35;;
47589;SDS011;33316;52.298;9.056;2023-05-16T01:34:24;2.63;;;1.33;;
47589;SDS011;33316;52.298;9.056;2023-05-16T01:36:51;1.73;;;1.27;;
47589;SDS011;33316;52.298;9.056;2023-05-16T01:39:26;2.53;;;1.23;;
47589;SDS011;33316;52.298;9.056;2023-05-16T01:42:00;1.73;;;0.90;;
47589;SDS011;33316;52.298;9.056;2023-05-16T01:44:34;3.33;;;0.95;;
47589;SDS011;33316;52.298;9.056;2023-05-16T01:47:07;2.03;;;0.90;;
47589;SDS011;33316;52.298;9.056;2023-05-16T01:49:38;2.00;;;0.80;;
47589;SDS011;33316;52.298;9.056;2023-05-16T01:52:10;2.70;;;0.80;;
47589;SDS011;33316;52.298;9.056;2023-05-16T01:54:42;3.05;;;0.80;;
47589;SDS011;33316;52.298;9.056;2023-05-16T01:57:12;2.13;;;0.85;;
47589;SDS011;33316;52.298;9.056;2023-05-16T01:59:39;2.03;;;0.50;;
47589;SDS011;33316;52.298;9.056;2023-05-16T02:02:07;1.65;;;0.63;;
47589;SDS011;33316;52.298;9.056;2023-05-16T02:04:34;2.47;;;0.70;;
47589;SDS011;33316;52.298;9.056;2023-05-16T02:07:01;1.80;;;0.77;;
47589;SDS011;33316;52.298;9.056;2023-05-16T02:09:27;0.82;;;0.50;;
47589;SDS011;33316;52.298;9.056;2023-05-16T02:11:54;2.55;;;0.70;;
47589;SDS011;33316;52.298;9.056;2023-05-16T02:14:22;3.22;;;0.90;;
47589;SDS011;33316;52.298;9.056;2023-05-16T02:16:49;2.70;;;0.82;;
47589;SDS011;33316;52.298;9.056;2023-05-16T02:19:16;2.17;;;0.85;;
47589;SDS011;33316;52.298;9.056;2023-05-16T02:21:43;8.23;;;3.83;;
47589;SDS011;33316;52.298;9.056;2023-05-16T02:24:09;6.65;;;2.58;;
47589;SDS011;33316;52.298;9.056;2023-05-16T02:26:36;3.75;;;1.17;;
47589;SDS011;33316;52.298;9.056;2023-05-16T02:29:03;1.70;;;0.60;;
47589;SDS011;33316;52.298;9.056;2023-05-16T02:31:31;2.78;;;0.70;;
47589;SDS011;33316;52.298;9.056;2023-05-16T02:33:59;3.22;;;0.60;;
47589;SDS011;33316;52.298;9.056;2023-05-16T02:36:26;3.65;;;1.00;;
47589;SDS011;33316;52.298;9.056;2023-05-16T02:38:53;2.75;;;0.85;;
47589;SDS011;33316;52.298;9.056;2023-05-16T02:41:20;3.13;;;0.70;;
47589;SDS011;33316;52.298;9.056;2023-05-16T02:43:47;0.90;;;0.60;;
47589;SDS011;33316;52.298;9.056;2023-05-16T02:46:20;5.78;;;0.90;;
47589;SDS011;33316;52.298;9.056;2023-05-16T02:48:49;2.95;;;0.95;;
47589;SDS011;33316;52.298;9.056;2023-05-16T02:51:16;3.70;;;0.80;;
47589;SDS011;33316;52.298;9.056;2023-05-16T02:53:43;3.00;;;1.10;;
47589;SDS011;33316;52.298;9.056;2023-05-16T02:56:10;3.40;;;0.77;;
47589;SDS011;33316;52.298;9.056;2023-05-16T02:58:37;2.30;;;0.73;;
47589;SDS011;33316;52.298;9.056;2023-05-16T03:01:04;3.45;;;1.05;;
47589;SDS011;33316;52.298;9.056;2023-05-16T03:03:30;3.25;;;1.02;;
47589;SDS011;33316;52.298;9.056;2023-05-16T03:06:00;2.95;;;0.90;;
47589;SDS011;33316;52.298;9.056;2023-05-16T03:08:27;5.45;;;1.10;;
47589;SDS011;33316;52.298;9.056;2023-05-16T03:10:54;2.35;;;0.90;;
47589;SDS011;33316;52.298;9.056;2023-05-16T03:13:20;4.30;;;1.25;;
47589;SDS011;33316;52.298;9.056;2023-05-16T03:15:47;2.92;;;0.70;;
47589;SDS011;33316;52.298;9.056;2023-05-16T03:18:14;3.72;;;0.80;;
47589;SDS011;33316;52.298;9.056;2023-05-16T03:20:41;4.38;;;0.90;;
47589;SDS011;33316;52.298;9.056;2023-05-16T03:23:09;2.60;;;0.77;;
47589;SDS011;33316;52.298;9.056;2023-05-16T03:25:36;3.33;;;0.93;;
47589;SDS011;33316;52.298;9.056;2023-05-16T03:28:03;4.00;;;0.70;;
47589;SDS011;33316;52.298;9.056;2023-05-16T03:30:31;4.40;;;1.10;;
47589;SDS011;33316;52.298;9.056;2023-05-16T03:32:58;5.95;;;1.30;;
47589;SDS011;33316;52.298;9.056;2023-05-16T03:35:25;5.60;;;1.10;;
47589;SDS011;33316;52.298;9.056;2023-05-16T03:37:52;3.30;;;0.80;;
47589;SDS011;33316;52.298;9.056;2023-05-16T03:40:20;2.97;;;0.88;;
47589;SDS011;33316;52.298;9.056;2023-05-16T03:42:46;3.50;;;0.70;;
47589;SDS011;33316;52.298;9.056;2023-05-16T03:45:14;5.18;;;0.90;;
47589;SDS011;33316;52.298;9.056;2023-05-16T03:47:41;5.53;;;0.90;;
47589;SDS011;33316;52.298;9.056;2023-05-16T03:50:08;3.35;;;1.08;;
47589;SDS011;33316;52.298;9.056;2023-05-16T03:52:35;4.68;;;1.27;;
47589;SDS011;33316;52.298;9.056;2023-05-16T03:55:02;3.58;;;1.25;;
47589;SDS011;33316;52.298;9.056;2023-05-16T03:57:30;5.93;;;1.33;;
47589;SDS011;33316;52.298;9.056;2023-05-16T03:59:58;4.72;;;0.90;;
47589;SDS011;33316;52.298;9.056;2023-05-16T04:02:25;4.18;;;0.95;;
47589;SDS011;33316;52.298;9.056;2023-05-16T04:04:51;5.93;;;1.20;;
47589;SDS011;33316;52.298;9.056;2023-05-16T04:07:18;6.20;;;1.35;;
47589;SDS011;33316;52.298;9.056;2023-05-16T04:09:44;6.43;;;1.17;;
47589;SDS011;33316;52.298;9.056;2023-05-16T04:12:11;4.25;;;1.08;;
47589;SDS011;33316;52.298;9.056;2023-05-16T04:14:39;3.60;;;1.05;;
47589;SDS011;33316;52.298;9.056;2023-05-16T04:17:06;5.65;;;0.90;;
47589;SDS011;33316;52.298;9.056;2023-05-16T04:19:32;10.18;;;1.77;;
47589;SDS011;33316;52.298;9.056;2023-05-16T04:21:59;4.43;;;1.20;;
47589;SDS011;33316;52.298;9.056;2023-05-16T04:24:25;4.05;;;0.85;;
47589;SDS011;33316;52.298;9.056;2023-05-16T04:26:53;5.70;;;1.30;;
47589;SDS011;33316;52.298;9.056;2023-05-16T04:29:20;5.30;;;1.10;;
47589;SDS011;33316;52.298;9.056;2023-05-16T04:31:48;5.13;;;1.25;;
47589;SDS011;33316;52.298;9.056;2023-05-16T04:34:15;6.20;;;1.58;;
47589;SDS011;33316;52.298;9.056;2023-05-16T04:36:42;7.15;;;1.17;;
47589;SDS011;33316;52.298;9.056;2023-05-16T04:39:09;4.85;;;1.13;;
47589;SDS011;33316;52.298;9.056;2023-05-16T04:41:35;3.22;;;1.00;;
47589;SDS011;33316;52.298;9.056;2023-05-16T04:44:02;3.95;;;1.10;;
47589;SDS011;33316;52.298;9.056;2023-05-16T04:46:29;6.63;;;1.15;;
47589;SDS011;33316;52.298;9.056;2023-05-16T04:48:57;4.75;;;1.00;;
47589;SDS011;33316;52.298;9.056;2023-05-16T04:51:24;7.45;;;1.25;;
47589;SDS011;33316;52.298;9.056;2023-05-16T04:53:50;7.07;;;1.00;;
47589;SDS011;33316;52.298;9.056;2023-05-16T04:56:17;6.68;;;0.90;;
47589;SDS011;33316;52.298;9.056;2023-05-16T04:58:44;4.97;;;0.88;;
47589;SDS011;33316;52.298;9.056;2023-05-16T05:01:11;4.07;;;1.20;;
47589;SDS011;33316;52.298;9.056;2023-05-16T05:03:37;4.97;;;0.98;;
47589;SDS011;33316;52.298;9.056;2023-05-16T05:06:06;3.45;;;0.80;;
47589;SDS011;33316;52.298;9.056;2023-05-16T05:08:32;6.60;;;1.15;;
47589;SDS011;33316;52.298;9.056;2023-05-16T05:10:59;6.35;;;1.45;;
47589;SDS011;33316;52.298;9.056;2023-05-16T05:13:26;6.28;;;1.40;;
47589;SDS011;33316;52.298;9.056;2023-05-16T05:15:53;7.35;;;1.42;;
47589;SDS011;33316;52.298;9.056;2023-05-16T05:18:20;5.90;;;1.10;;
47589;SDS011;33316;52.298;9.056;2023-05-16T05:20:47;8.30;;;1.30;;
47589;SDS011;33316;52.298;9.056;2023-05-16T05:23:18;8.02;;;1.13;;
47589;SDS011;33316;52.298;9.056;2023-05-16T05:25:45;5.68;;;1.10;;
47589;SDS011;33316;52.298;9.056;2023-05-16T05:28:12;3.33;;;0.80;;
47589;SDS011;33316;52.298;9.056;2023-05-16T05:30:38;7.18;;;1.17;;
47589;SDS011;33316;52.298;9.056;2023-05-16T05:33:05;6.35;;;1.38;;
47589;SDS011;33316;52.298;9.056;2023-05-16T05:35:31;4.97;;;1.00;;
47589;SDS011;33316;52.298;9.056;2023-05-16T05:37:58;7.22;;;1.35;;
47589;SDS011;33316;52.298;9.056;2023-05-16T05:40:27;4.93;;;1.27;;
47589;SDS011;33316;52.298;9.056;2023-05-16T05:42:53;2.55;;;0.80;;
47589;SDS011;33316;52.298;9.056;2023-05-16T05:45:20;5.28;;;1.15;;
47589;SDS011;33316;52.298;9.056;2023-05-16T05:47:46;7.25;;;0.88;;
47589;SDS011;33316;52.298;9.056;2023-05-16T05:50:13;5.57;;;1.02;;
47589;SDS011;33316;52.298;9.056;2023-05-16T05:52:40;4.13;;;0.75;;
47589;SDS011;33316;52.298;9.056;2023-05-16T05:55:07;5.80;;;1.05;;
47589;SDS011;33316;52.298;9.056;2023-05-16T05:57:35;3.70;;;1.08;;
47589;SDS011;33316;52.298;9.056;2023-05-16T06:00:02;7.22;;;1.25;;
47589;SDS011;33316;52.298;9.056;2023-05-16T06:02:31;4.32;;;0.85;;
47589;SDS011;33316;52.298;9.056;2023-05-16T06:04:57;6.97;;;1.48;;
47589;SDS011;33316;52.298;9.056;2023-05-16T06:07:24;5.78;;;1.15;;
47589;SDS011;33316;52.298;9.056;2023-05-16T06:09:50;4.07;;;0.88;;
47589;SDS011;33316;52.298;9.056;2023-05-16T06:12:17;6.13;;;1.23;;
47589;SDS011;33316;52.298;9.056;2023-05-16T06:14:45;4.05;;;1.00;;
47589;SDS011;33316;52.298;9.056;2023-05-16T06:17:12;6.35;;;1.38;;
47589;SDS011;33316;52.298;9.056;2023-05-16T06:19:38;5.82;;;1.17;;
47589;SDS011;33316;52.298;9.056;2023-05-16T06:22:05;4.95;;;1.33;;
47589;SDS011;33316;52.298;9.056;2023-05-16T06:24:32;4.03;;;0.80;;
47589;SDS011;33316;52.298;9.056;2023-05-16T06:26:58;7.32;;;1.13;;
47589;SDS011;33316;52.298;9.056;2023-05-16T06:29:25;5.40;;;0.95;;
47589;SDS011;33316;52.298;9.056;2023-05-16T06:31:53;7.50;;;1.30;;
47589;SDS011;33316;52.298;9.056;2023-05-16T06:34:20;3.22;;;1.00;;
47589;SDS011;33316;52.298;9.056;2023-05-16T06:36:51;7.95;;;1.30;;
47589;SDS011;33316;52.298;9.056;2023-05-16T06:39:18;8.30;;;1.10;;
47589;SDS011;33316;52.298;9.056;2023-05-16T06:41:44;5.22;;;1.23;;
47589;SDS011;33316;52.298;9.056;2023-05-16T06:44:11;5.32;;;0.90;;
47589;SDS011;33316;52.298;9.056;2023-05-16T06:46:38;3.17;;;0.88;;
47589;SDS011;33316;52.298;9.056;2023-05-16T06:49:06;5.25;;;1.25;;
47589;SDS011;33316;52.298;9.056;2023-05-16T06:51:33;6.32;;;1.00;;
47589;SDS011;33316;52.298;9.056;2023-05-16T06:53:59;9.27;;;2.60;;
47589;SDS011;33316;52.298;9.056;2023-05-16T06:56:26;6.20;;;1.65;;
47589;SDS011;33316;52.298;9.056;2023-05-16T06:58:53;4.70;;;1.15;;
47589;SDS011;33316;52.298;9.056;2023-05-16T07:01:20;6.07;;;1.00;;
47589;SDS011;33316;52.298;9.056;2023-05-16T07:03:46;5.05;;;0.80;;
47589;SDS011;33316;52.298;9.056;2023-05-16T07:06:14;6.97;;;1.30;;
47589;SDS011;33316;52.298;9.056;2023-05-16T07:08:41;3.97;;;0.95;;
47589;SDS011;33316;52.298;9.056;2023-05-16T07:11:10;7.35;;;1.27;;
47589;SDS011;33316;52.298;9.056;2023-05-16T07:13:38;4.78;;;1.02;;
47589;SDS011;33316;52.298;9.056;2023-05-16T07:16:05;5.30;;;0.98;;
47589;SDS011;33316;52.298;9.056;2023-05-16T07:18:32;5.60;;;0.77;;
47589;SDS011;33316;52.298;9.056;2023-05-16T07:20:59;3.53;;;0.80;;
47589;SDS011;33316;52.298;9.056;2023-05-16T07:23:29;5.03;;;1.33;;
47589;SDS011;33316;52.298;9.056;2023-05-16T07:25:55;5.88;;;1.17;;
47589;SDS011;33316;52.298;9.056;2023-05-16T07:28:27;4.70;;;1.27;;
47589;SDS011;33316;52.298;9.056;2023-05-16T07:30:54;4.63;;;1.27;;
47589;SDS011;33316;52.298;9.056;2023-05-16T07:33:22;7.00;;;1.10;;
47589;SDS011;33316;52.298;9.056;2023-05-16T07:35:49;2.95;;;0.80;;
47589;SDS011;33316;52.298;9.056;2023-05-16T07:38:16;3.10;;;0.80;;
47589;SDS011;33316;52.298;9.056;2023-05-16T07:40:44;3.03;;;0.70;;
47589;SDS011;33316;52.298;9.056;2023-05-16T07:43:11;4.93;;;0.93;;
47589;SDS011;33316;52.298;9.056;2023-05-16T07:45:38;6.93;;;0.95;;
47589;SDS011;33316;52.298;9.056;2023-05-16T07:48:05;3.92;;;1.05;;
47589;SDS011;33316;52.298;9.056;2023-05-16T07:50:32;7.82;;;1.30;;
47589;SDS011;33316;52.298;9.056;2023-05-16T07:52:58;5.40;;;0.98;;
47589;SDS011;33316;52.298;9.056;2023-05-16T07:55:25;4.22;;;0.80;;
47589;SDS011;33316;52.298;9.056;2023-05-16T07:57:53;2.15;;;0.68;;
47589;SDS011;33316;52.298;9.056;2023-05-16T08:00:20;4.57;;;0.85;;
47589;SDS011;33316;52.298;9.056;2023-05-16T08:02:47;3.45;;;0.73;;
47589;SDS011;33316;52.298;9.056;2023-05-16T08:05:13;5.03;;;1.08;;
47589;SDS011;33316;52.298;9.056;2023-05-16T08:07:40;2.75;;;0.57;;
47589;SDS011;33316;52.298;9.056;2023-05-16T08:10:07;3.05;;;0.65;;
47589;SDS011;33316;52.298;9.056;2023-05-16T08:12:34;5.32;;;0.90;;
47589;SDS011;33316;52.298;9.056;2023-05-16T08:15:03;2.13;;;0.80;;
47589;SDS011;33316;52.298;9.056;2023-05-16T08:17:30;2.40;;;0.80;;
47589;SDS011;33316;52.298;9.056;2023-05-16T08:19:57;3.47;;;0.60;;
47589;SDS011;33316;52.298;9.056;2023-05-16T08:22:25;5.00;;;0.85;;
47589;SDS011;33316;52.298;9.056;2023-05-16T08:24:52;6.45;;;1.00;;
47589;SDS011;33316;52.298;9.056;2023-05-16T08:27:21;4.63;;;0.70;;
47589;SDS011;33316;52.298;9.056;2023-05-16T08:29:48;5.78;;;0.88;;
47589;SDS011;33316;52.298;9.056;2023-05-16T08:32:16;4.10;;;0.93;;
47589;SDS011;33316;52.298;9.056;2023-05-16T08:34:43;4.50;;;0.73;;
47589;SDS011;33316;52.298;9.056;2023-05-16T08:37:09;3.90;;;0.60;;
47589;SDS011;33316;52.298;9.056;2023-05-16T08:39:37;5.03;;;0.93;;
47589;SDS011;33316;52.298;9.056;2023-05-16T08:42:04;2.35;;;0.80;;
47589;SDS011;33316;52.298;9.056;2023-05-16T08:44:31;1.67;;;0.50;;
47589;SDS011;33316;52.298;9.056;2023-05-16T08:47:01;3.28;;;0.80;;
47589;SDS011;33316;52.298;9.056;2023-05-16T08:49:37;1.77;;;0.60;;
47589;SDS011;33316;52.298;9.056;2023-05-16T08:52:05;4.50;;;0.70;;
47589;SDS011;33316;52.298;9.056;2023-05-16T08:54:34;3.67;;;0.95;;
47589;SDS011;33316;52.298;9.056;2023-05-16T08:57:01;2.38;;;0.60;;
47589;SDS011;33316;52.298;9.056;2023-05-16T08:59:29;3.47;;;0.80;;
47589;SDS011;33316;52.298;9.056;2023-05-16T09:01:57;2.72;;;0.57;;
47589;SDS011;33316;52.298;9.056;2023-05-16T09:04:24;3.35;;;0.60;;
47589;SDS011;33316;52.298;9.056;2023-05-16T09:06:52;3.03;;;0.50;;
47589;SDS011;33316;52.298;9.056;2023-05-16T09:09:19;2.90;;;0.50;;
47589;SDS011;33316;52.298;9.056;2023-05-16T09:11:46;3.60;;;0.60;;
47589;SDS011;33316;52.298;9.056;2023-05-16T09:14:13;3.75;;;0.50;;
47589;SDS011;33316;52.298;9.056;2023-05-16T09:16:40;1.65;;;0.47;;
47589;SDS011;33316;52.298;9.056;2023-05-16T09:19:06;4.00;;;0.60;;
47589;SDS011;33316;52.298;9.056;2023-05-16T09:21:37;1.80;;;0.40;;
47589;SDS011;33316;52.298;9.056;2023-05-16T09:24:07;5.38;;;0.70;;
47589;SDS011;33316;52.298;9.056;2023-05-16T09:26:35;3.42;;;0.70;;
47589;SDS011;33316;52.298;9.056;2023-05-16T09:29:08;2.42;;;0.50;;
47589;SDS011;33316;52.298;9.056;2023-05-16T09:31:36;5.72;;;1.45;;
47589;SDS011;33316;52.298;9.056;2023-05-16T09:34:03;2.78;;;0.60;;
47589;SDS011;33316;52.298;9.056;2023-05-16T09:36:32;4.63;;;0.60;;
47589;SDS011;33316;52.298;9.056;2023-05-16T09:38:59;1.45;;;0.50;;
47589;SDS011;33316;52.298;9.056;2023-05-16T09:41:27;2.17;;;0.57;;
47589;SDS011;33316;52.298;9.056;2023-05-16T09:43:57;2.88;;;0.57;;
47589;SDS011;33316;52.298;9.056;2023-05-16T09:46:24;3.13;;;0.40;;
47589;SDS011;33316;52.298;9.056;2023-05-16T09:48:52;2.58;;;0.55;;
47589;SDS011;33316;52.298;9.056;2023-05-16T09:51:20;2.33;;;0.60;;
47589;SDS011;33316;52.298;9.056;2023-05-16T09:53:48;4.72;;;0.55;;
47589;SDS011;33316;52.298;9.056;2023-05-16T09:56:15;4.00;;;0.70;;
47589;SDS011;33316;52.298;9.056;2023-05-16T09:58:43;2.97;;;0.60;;
47589;SDS011;33316;52.298;9.056;2023-05-16T10:01:11;3.08;;;0.57;;
47589;SDS011;33316;52.298;9.056;2023-05-16T10:03:44;4.68;;;0.50;;
47589;SDS011;33316;52.298;9.056;2023-05-16T10:06:25;3.47;;;0.88;;
47589;SDS011;33316;52.298;9.056;2023-05-16T10:08:52;2.40;;;0.40;;
47589;SDS011;33316;52.298;9.056;2023-05-16T10:11:19;4.65;;;0.68;;
47589;SDS011;33316;52.298;9.056;2023-05-16T10:13:50;3.35;;;0.47;;
47589;SDS011;33316;52.298;9.056;2023-05-16T10:16:18;2.28;;;0.55;;
47589;SDS011;33316;52.298;9.056;2023-05-16T10:18:47;2.10;;;0.63;;
47589;SDS011;33316;52.298;9.056;2023-05-16T10:21:15;4.03;;;0.88;;
47589;SDS011;33316;52.298;9.056;2023-05-16T10:23:46;1.77;;;0.60;;
47589;SDS011;33316;52.298;9.056;2023-05-16T10:26:15;3.42;;;0.63;;
47589;SDS011;33316;52.298;9.056;2023-05-16T10:28:42;3.05;;;0.50;;
47589;SDS011;33316;52.298;9.056;2023-05-16T10:31:11;4.35;;;0.70;;
47589;SDS011;33316;52.298;9.056;2023-05-16T10:33:39;4.20;;;0.63;;
47589;SDS011;33316;52.298;9.056;2023-05-16T10:36:09;4.65;;;0.70;;
47589;SDS011;33316;52.298;9.056;2023-05-16T10:38:39;2.42;;;0.70;;
47589;SDS011;33316;52.298;9.056;2023-05-16T10:41:09;1.20;;;0.50;;
47589;SDS011;33316;52.298;9.056;2023-05-16T10:43:43;1.63;;;0.40;;
47589;SDS011;33316;52.298;9.056;2023-05-16T10:46:22;3.30;;;0.50;;
47589;SDS011;33316;52.298;9.056;2023-05-16T10:48:49;1.42;;;0.30;;
47589;SDS011;33316;52.298;9.056;2023-05-16T10:51:35;2.53;;;0.47;;
47589;SDS011;33316;52.298;9.056;2023-05-16T10:54:03;2.42;;;0.40;;
47589;SDS011;33316;52.298;9.056;2023-05-16T10:56:32;2.25;;;0.40;;
47589;SDS011;33316;52.298;9.056;2023-05-16T10:58:59;7.03;;;0.60;;
47589;SDS011;33316;52.298;9.056;2023-05-16T11:01:30;1.60;;;0.32;;
47589;SDS011;33316;52.298;9.056;2023-05-16T11:03:59;2.97;;;0.40;;
47589;SDS011;33316;52.298;9.056;2023-05-16T11:06:30;4.13;;;0.38;;
47589;SDS011;33316;52.298;9.056;2023-05-16T11:09:04;0.75;;;0.30;;
47589;SDS011;33316;52.298;9.056;2023-05-16T11:11:46;2.03;;;0.43;;
47589;SDS011;33316;52.298;9.056;2023-05-16T11:14:21;1.55;;;0.40;;
47589;SDS011;33316;52.298;9.056;2023-05-16T11:16:59;1.80;;;0.50;;
47589;SDS011;33316;52.298;9.056;2023-05-16T11:19:32;1.60;;;0.40;;
47589;SDS011;33316;52.298;9.056;2023-05-16T11:24:54;3.10;;;0.50;;
47589;SDS011;33316;52.298;9.056;2023-05-16T11:27:25;1.50;;;0.40;;
47589;SDS011;33316;52.298;9.056;2023-05-16T11:29:59;1.35;;;0.30;;
47589;SDS011;33316;52.298;9.056;2023-05-16T11:32:30;0.93;;;0.40;;
47589;SDS011;33316;52.298;9.056;2023-05-16T11:34:59;1.33;;;0.35;;
47589;SDS011;33316;52.298;9.056;2023-05-16T11:37:26;4.10;;;0.50;;
47589;SDS011;33316;52.298;9.056;2023-05-16T11:39:57;1.23;;;0.40;;
47589;SDS011;33316;52.298;9.056;2023-05-16T11:42:24;0.85;;;0.20;;
47589;SDS011;33316;52.298;9.056;2023-05-16T11:47:30;1.17;;;0.30;;
47589;SDS011;33316;52.298;9.056;2023-05-16T11:49:57;1.38;;;0.40;;
47589;SDS011;33316;52.298;9.056;2023-05-16T11:52:24;2.63;;;0.40;;
47589;SDS011;33316;52.298;9.056;2023-05-16T11:54:51;0.90;;;0.32;;
47589;SDS011;33316;52.298;9.056;2023-05-16T11:57:19;1.38;;;0.43;;
47589;SDS011;33316;52.298;9.056;2023-05-16T11:59:46;2.45;;;0.50;;
47589;SDS011;33316;52.298;9.056;2023-05-16T12:02:13;1.48;;;0.30;;
47589;SDS011;33316;52.298;9.056;2023-05-16T12:04:43;2.15;;;0.38;;
47589;SDS011;33316;52.298;9.056;2023-05-16T12:07:15;1.13;;;0.40;;
47589;SDS011;33316;52.298;9.056;2023-05-16T12:09:41;2.47;;;0.40;;
47589;SDS011;33316;52.298;9.056;2023-05-16T12:12:18;3.67;;;0.70;;
47589;SDS011;33316;52.298;9.056;2023-05-16T12:14:47;2.20;;;0.80;;
47589;SDS011;33316;52.298;9.056;2023-05-16T12:17:14;2.70;;;0.50;;
47589;SDS011;33316;52.298;9.056;2023-05-16T12:19:42;2.72;;;0.68;;
47589;SDS011;33316;52.298;9.056;2023-05-16T12:22:14;2.13;;;0.60;;
47589;SDS011;33316;52.298;9.056;2023-05-16T12:24:44;2.85;;;0.45;;
47589;SDS011;33316;52.298;9.056;2023-05-16T12:27:10;4.35;;;0.82;;
47589;SDS011;33316;52.298;9.056;2023-05-16T12:29:37;3.45;;;0.90;;
47589;SDS011;33316;52.298;9.056;2023-05-16T12:32:12;1.92;;;0.70;;
47589;SDS011;33316;52.298;9.056;2023-05-16T12:34:38;2.10;;;0.57;;
47589;SDS011;33316;52.298;9.056;2023-05-16T12:37:15;2.00;;;0.60;;
47589;SDS011;33316;52.298;9.056;2023-05-16T12:39:41;3.38;;;0.85;;
47589;SDS011;33316;52.298;9.056;2023-05-16T12:42:11;2.30;;;0.70;;
47589;SDS011;33316;52.298;9.056;2023-05-16T12:44:38;4.55;;;0.68;;
47589;SDS011;33316;52.298;9.056;2023-05-16T12:47:09;2.83;;;0.77;;
47589;SDS011;33316;52.298;9.056;2023-05-16T12:49:42;3.15;;;0.65;;
47589;SDS011;33316;52.298;9.056;2023-05-16T12:52:09;3.00;;;0.50;;
47589;SDS011;33316;52.298;9.056;2023-05-16T12:54:44;1.80;;;0.60;;
47589;SDS011;33316;52.298;9.056;2023-05-16T12:57:11;1.55;;;0.30;;
47589;SDS011;33316;52.298;9.056;2023-05-16T12:59:38;2.53;;;0.45;;
47589;SDS011;33316;52.298;9.056;2023-05-16T13:02:04;2.55;;;0.50;;
47589;SDS011;33316;52.298;9.056;2023-05-16T13:04:32;7.00;;;0.90;;
47589;SDS011;33316;52.298;9.056;2023-05-16T13:06:58;3.28;;;0.63;;
47589;SDS011;33316;52.298;9.056;2023-05-16T13:09:27;3.90;;;0.50;;
47589;SDS011;33316;52.298;9.056;2023-05-16T13:11:53;3.15;;;0.40;;
47589;SDS011;33316;52.298;9.056;2023-05-16T13:14:20;1.80;;;0.38;;
47589;SDS011;33316;52.298;9.056;2023-05-16T13:16:47;1.92;;;0.40;;
47589;SDS011;33316;52.298;9.056;2023-05-16T13:19:13;1.80;;;0.40;;
47589;SDS011;33316;52.298;9.056;2023-05-16T13:21:40;1.30;;;0.40;;
47589;SDS011;33316;52.298;9.056;2023-05-16T13:24:07;1.30;;;0.43;;
47589;SDS011;33316;52.298;9.056;2023-05-16T13:26:35;0.60;;;0.25;;
47589;SDS011;33316;52.298;9.056;2023-05-16T13:29:01;3.03;;;0.50;;
47589;SDS011;33316;52.298;9.056;2023-05-16T13:31:28;1.58;;;0.30;;
47589;SDS011;33316;52.298;9.056;2023-05-16T13:33:54;1.98;;;0.30;;
47589;SDS011;33316;52.298;9.056;2023-05-16T13:36:22;1.70;;;0.40;;
47589;SDS011;33316;52.298;9.056;2023-05-16T13:38:49;1.70;;;0.20;;
47589;SDS011;33316;52.298;9.056;2023-05-16T13:41:16;0.90;;;0.32;;
47589;SDS011;33316;52.298;9.056;2023-05-16T13:43:44;1.42;;;0.47;;
47589;SDS011;33316;52.298;9.056;2023-05-16T13:46:10;1.92;;;0.30;;
47589;SDS011;33316;52.298;9.056;2023-05-16T13:48:37;0.95;;;0.32;;
47589;SDS011;33316;52.298;9.056;2023-05-16T13:51:04;2.00;;;0.50;;
47589;SDS011;33316;52.298;9.056;2023-05-16T13:53:30;2.17;;;0.30;;
47589;SDS011;33316;52.298;9.056;2023-05-16T13:55:57;1.52;;;0.30;;
47589;SDS011;33316;52.298;9.056;2023-05-16T13:58:23;2.83;;;0.38;;
47589;SDS011;33316;52.298;9.056;2023-05-16T14:00:52;1.13;;;0.25;;
47589;SDS011;33316;52.298;9.056;2023-05-16T14:03:35;0.50;;;0.15;;
47589;SDS011;33316;52.298;9.056;2023-05-16T14:06:05;1.27;;;0.30;;
47589;SDS011;33316;52.298;9.056;2023-05-16T14:08:33;2.28;;;0.40;;
47589;SDS011;33316;52.298;9.056;2023-05-16T14:10:59;2.10;;;0.32;;
47589;SDS011;33316;52.298;9.056;2023-05-16T14:13:26;3.60;;;0.47;;
47589;SDS011;33316;52.298;9.056;2023-05-16T14:15:54;1.35;;;0.43;;
47589;SDS011;33316;52.298;9.056;2023-05-16T14:18:21;1.52;;;0.45;;
47589;SDS011;33316;52.298;9.056;2023-05-16T14:20:48;2.60;;;0.43;;
47589;SDS011;33316;52.298;9.056;2023-05-16T14:23:15;1.08;;;0.47;;
47589;SDS011;33316;52.298;9.056;2023-05-16T14:25:42;2.88;;;0.32;;
47589;SDS011;33316;52.298;9.056;2023-05-16T14:28:08;1.85;;;0.40;;
47589;SDS011;33316;52.298;9.056;2023-05-16T14:30:35;2.40;;;0.40;;
47589;SDS011;33316;52.298;9.056;2023-05-16T14:33:03;2.25;;;0.55;;
47589;SDS011;33316;52.298;9.056;2023-05-16T14:35:31;1.17;;;0.30;;
47589;SDS011;33316;52.298;9.056;2023-05-16T14:37:57;1.35;;;0.32;;
47589;SDS011;33316;52.298;9.056;2023-05-16T14:40:24;1.75;;;0.30;;
47589;SDS011;33316;52.298;9.056;2023-05-16T14:42:50;4.18;;;0.50;;
47589;SDS011;33316;52.298;9.056;2023-05-16T14:45:17;1.42;;;0.35;;
47589;SDS011;33316;52.298;9.056;2023-05-16T14:47:44;1.88;;;0.40;;
47589;SDS011;33316;52.298;9.056;2023-05-16T14:50:13;4.25;;;1.27;;
47589;SDS011;33316;52.298;9.056;2023-05-16T14:52:40;2.38;;;0.60;;
47589;SDS011;33316;52.298;9.056;2023-05-16T14:55:06;2.90;;;0.60;;
47589;SDS011;33316;52.298;9.056;2023-05-16T14:57:33;2.15;;;0.50;;